sensor_id;sensor_type;location;lat;lon;timestamp;P1;durP1;ratioP1;P2;durP2;ratioP2
67053;SDS011;53960;51.826;5.850;2022-12-18T00:02:20;38.60;;;16.67;;
67053;SDS011;53960;51.826;5.850;2022-12-18T00:04:46;41.00;;;15.88;;
67053;SDS011;53960;51.826;5.850;2022-12-18T00:07:12;40.70;;;16.37;;
67053;SDS011;53960;51.826;5.850;2022-12-18T00:09:37;38.33;;;16.63;;
67053;SDS011;53960;51.826;5.850;2022-12-18T00:12:02;38.13;;;16.27;;
67053;SDS011;53960;51.826;5.850;2022-12-18T00:14:28;40.08;;;17.15;;
67053;SDS011;53960;51.826;5.850;2022-12-18T00:16:53;36.50;;;15.97;;
67053;SDS011;53960;51.826;5.850;2022-12-18T00:19:19;36.33;;;16.47;;
67053;SDS011;53960;51.826;5.850;2022-12-18T00:21:44;39.27;;;15.80;;
67053;SDS011;53960;51.826;5.850;2022-12-18T00:24:09;35.53;;;15.33;;
67053;SDS011;53960;51.826;5.850;2022-12-18T00:26:36;39.60;;;15.95;;
67053;SDS011;53960;51.826;5.850;2022-12-18T00:29:04;40.03;;;15.52;;
67053;SDS011;53960;51.826;5.850;2022-12-18T00:31:32;35.10;;;14.55;;
67053;SDS011;53960;51.826;5.850;2022-12-18T00:33:58;33.83;;;14.67;;
67053;SDS011;53960;51.826;5.850;2022-12-18T00:36:27;33.45;;;15.25;;
67053;SDS011;53960;51.826;5.850;2022-12-18T00:38:56;31.88;;;14.10;;
67053;SDS011;53960;51.826;5.850;2022-12-18T00:41:22;34.07;;;14.30;;
67053;SDS011;53960;51.826;5.850;2022-12-18T00:44:07;34.22;;;14.52;;
67053;SDS011;53960;51.826;5.850;2022-12-18T00:46:35;30.95;;;13.93;;
67053;SDS011;53960;51.826;5.850;2022-12-18T00:49:00;34.33;;;13.73;;
67053;SDS011;53960;51.826;5.850;2022-12-18T00:51:27;34.28;;;14.77;;
67053;SDS011;53960;51.826;5.850;2022-12-18T00:53:52;31.97;;;14.67;;
67053;SDS011;53960;51.826;5.850;2022-12-18T00:56:20;35.40;;;14.60;;
67053;SDS011;53960;51.826;5.850;2022-12-18T00:58:46;29.90;;;13.48;;
67053;SDS011;53960;51.826;5.850;2022-12-18T01:01:11;30.63;;;13.70;;
67053;SDS011;53960;51.826;5.850;2022-12-18T01:03:37;25.63;;;13.37;;
67053;SDS011;53960;51.826;5.850;2022-12-18T01:06:06;28.27;;;13.43;;
67053;SDS011;53960;51.826;5.850;2022-12-18T01:08:32;29.90;;;13.13;;
67053;SDS011;53960;51.826;5.850;2022-12-18T01:10:58;26.27;;;11.93;;
67053;SDS011;53960;51.826;5.850;2022-12-18T01:13:23;25.17;;;12.10;;
67053;SDS011;53960;51.826;5.850;2022-12-18T01:15:49;27.50;;;11.97;;
67053;SDS011;53960;51.826;5.850;2022-12-18T01:18:15;26.17;;;12.00;;
67053;SDS011;53960;51.826;5.850;2022-12-18T01:20:40;30.53;;;12.43;;
67053;SDS011;53960;51.826;5.850;2022-12-18T01:23:05;27.03;;;11.93;;
67053;SDS011;53960;51.826;5.850;2022-12-18T01:25:32;27.13;;;12.32;;
67053;SDS011;53960;51.826;5.850;2022-12-18T01:28:00;28.42;;;12.75;;
67053;SDS011;53960;51.826;5.850;2022-12-18T01:30:26;26.37;;;11.77;;
67053;SDS011;53960;51.826;5.850;2022-12-18T01:32:52;29.38;;;12.60;;
67053;SDS011;53960;51.826;5.850;2022-12-18T01:35:17;28.80;;;12.60;;
67053;SDS011;53960;51.826;5.850;2022-12-18T01:37:42;25.77;;;11.33;;
67053;SDS011;53960;51.826;5.850;2022-12-18T01:40:08;27.13;;;11.73;;
67053;SDS011;53960;51.826;5.850;2022-12-18T01:42:33;26.92;;;11.52;;
67053;SDS011;53960;51.826;5.850;2022-12-18T01:49:58;28.33;;;11.25;;
67053;SDS011;53960;51.826;5.850;2022-12-18T01:52:27;24.98;;;11.57;;
67053;SDS011;53960;51.826;5.850;2022-12-18T01:54:55;25.73;;;10.80;;
67053;SDS011;53960;51.826;5.850;2022-12-18T01:57:22;25.95;;;11.52;;
67053;SDS011;53960;51.826;5.850;2022-12-18T01:59:49;24.73;;;10.93;;
67053;SDS011;53960;51.826;5.850;2022-12-18T02:02:17;24.80;;;11.82;;
67053;SDS011;53960;51.826;5.850;2022-12-18T02:04:44;26.15;;;11.18;;
67053;SDS011;53960;51.826;5.850;2022-12-18T02:10:03;24.83;;;11.48;;
67053;SDS011;53960;51.826;5.850;2022-12-18T02:12:45;28.13;;;11.48;;
67053;SDS011;53960;51.826;5.850;2022-12-18T02:15:28;26.90;;;11.07;;
67053;SDS011;53960;51.826;5.850;2022-12-18T02:18:17;20.13;;;10.53;;
67053;SDS011;53960;51.826;5.850;2022-12-18T02:20:52;23.40;;;9.80;;
67053;SDS011;53960;51.826;5.850;2022-12-18T02:23:29;26.65;;;10.10;;
67053;SDS011;53960;51.826;5.850;2022-12-18T02:28:53;21.42;;;9.73;;
67053;SDS011;53960;51.826;5.850;2022-12-18T02:31:23;22.03;;;9.87;;
67053;SDS011;53960;51.826;5.850;2022-12-18T02:33:53;20.75;;;9.45;;
67053;SDS011;53960;51.826;5.850;2022-12-18T02:36:25;22.83;;;10.07;;
67053;SDS011;53960;51.826;5.850;2022-12-18T02:38:52;26.10;;;10.35;;
67053;SDS011;53960;51.826;5.850;2022-12-18T02:41:19;22.73;;;9.05;;
67053;SDS011;53960;51.826;5.850;2022-12-18T02:43:52;21.97;;;9.57;;
67053;SDS011;53960;51.826;5.850;2022-12-18T02:46:28;22.08;;;9.95;;
67053;SDS011;53960;51.826;5.850;2022-12-18T02:49:16;21.02;;;9.48;;
67053;SDS011;53960;51.826;5.850;2022-12-18T02:54:52;23.70;;;9.85;;
67053;SDS011;53960;51.826;5.850;2022-12-18T02:57:24;22.43;;;9.17;;
67053;SDS011;53960;51.826;5.850;2022-12-18T03:00:07;22.00;;;9.35;;
67053;SDS011;53960;51.826;5.850;2022-12-18T03:03:22;20.92;;;9.60;;
67053;SDS011;53960;51.826;5.850;2022-12-18T03:08:25;23.70;;;9.05;;
67053;SDS011;53960;51.826;5.850;2022-12-18T03:11:04;20.77;;;8.60;;
67053;SDS011;53960;51.826;5.850;2022-12-18T03:13:33;21.05;;;9.32;;
67053;SDS011;53960;51.826;5.850;2022-12-18T03:16:02;22.08;;;10.50;;
67053;SDS011;53960;51.826;5.850;2022-12-18T03:18:34;22.70;;;9.43;;
67053;SDS011;53960;51.826;5.850;2022-12-18T03:21:03;20.08;;;8.88;;
67053;SDS011;53960;51.826;5.850;2022-12-18T03:23:32;16.93;;;8.20;;
67053;SDS011;53960;51.826;5.850;2022-12-18T03:26:05;22.02;;;9.02;;
67053;SDS011;53960;51.826;5.850;2022-12-18T03:28:35;19.48;;;9.05;;
67053;SDS011;53960;51.826;5.850;2022-12-18T03:31:04;21.20;;;8.90;;
67053;SDS011;53960;51.826;5.850;2022-12-18T03:33:46;20.42;;;9.05;;
67053;SDS011;53960;51.826;5.850;2022-12-18T03:36:16;20.67;;;9.43;;
67053;SDS011;53960;51.826;5.850;2022-12-18T03:38:42;21.23;;;8.43;;
67053;SDS011;53960;51.826;5.850;2022-12-18T03:43:52;20.85;;;8.63;;
67053;SDS011;53960;51.826;5.850;2022-12-18T03:46:30;23.42;;;9.70;;
67053;SDS011;53960;51.826;5.850;2022-12-18T03:49:08;19.37;;;8.93;;
67053;SDS011;53960;51.826;5.850;2022-12-18T03:51:59;21.02;;;8.82;;
67053;SDS011;53960;51.826;5.850;2022-12-18T03:54:28;19.63;;;8.63;;
67053;SDS011;53960;51.826;5.850;2022-12-18T03:56:59;20.65;;;8.15;;
67053;SDS011;53960;51.826;5.850;2022-12-18T03:59:29;19.17;;;8.48;;
67053;SDS011;53960;51.826;5.850;2022-12-18T04:01:56;16.83;;;7.33;;
67053;SDS011;53960;51.826;5.850;2022-12-18T04:04:23;18.67;;;7.95;;
67053;SDS011;53960;51.826;5.850;2022-12-18T04:06:50;17.27;;;7.85;;
67053;SDS011;53960;51.826;5.850;2022-12-18T04:09:17;16.88;;;7.95;;
67053;SDS011;53960;51.826;5.850;2022-12-18T04:11:43;18.48;;;7.78;;
67053;SDS011;53960;51.826;5.850;2022-12-18T04:14:11;17.73;;;7.63;;
67053;SDS011;53960;51.826;5.850;2022-12-18T04:16:37;17.17;;;7.88;;
67053;SDS011;53960;51.826;5.850;2022-12-18T04:19:02;18.10;;;8.30;;
67053;SDS011;53960;51.826;5.850;2022-12-18T04:21:28;18.80;;;8.18;;
67053;SDS011;53960;51.826;5.850;2022-12-18T04:23:53;15.60;;;7.47;;
67053;SDS011;53960;51.826;5.850;2022-12-18T04:26:18;19.37;;;7.90;;
67053;SDS011;53960;51.826;5.850;2022-12-18T04:28:44;18.73;;;8.40;;
67053;SDS011;53960;51.826;5.850;2022-12-18T04:31:09;17.97;;;7.50;;
67053;SDS011;53960;51.826;5.850;2022-12-18T04:33:34;18.13;;;7.90;;
67053;SDS011;53960;51.826;5.850;2022-12-18T04:36:00;18.58;;;7.55;;
67053;SDS011;53960;51.826;5.850;2022-12-18T04:38:25;19.50;;;8.17;;
67053;SDS011;53960;51.826;5.850;2022-12-18T04:40:51;17.57;;;7.50;;
67053;SDS011;53960;51.826;5.850;2022-12-18T04:43:16;18.80;;;8.50;;
67053;SDS011;53960;51.826;5.850;2022-12-18T04:45:41;17.70;;;7.37;;
67053;SDS011;53960;51.826;5.850;2022-12-18T04:48:07;20.30;;;8.70;;
67053;SDS011;53960;51.826;5.850;2022-12-18T04:50:32;20.15;;;8.68;;
67053;SDS011;53960;51.826;5.850;2022-12-18T04:52:58;20.07;;;8.17;;
67053;SDS011;53960;51.826;5.850;2022-12-18T04:55:26;19.03;;;8.60;;
67053;SDS011;53960;51.826;5.850;2022-12-18T04:57:52;17.75;;;8.45;;
67053;SDS011;53960;51.826;5.850;2022-12-18T05:00:17;19.73;;;8.20;;
67053;SDS011;53960;51.826;5.850;2022-12-18T05:02:43;18.23;;;8.67;;
67053;SDS011;53960;51.826;5.850;2022-12-18T05:05:08;16.37;;;8.07;;
67053;SDS011;53960;51.826;5.850;2022-12-18T05:07:34;18.52;;;8.25;;
67053;SDS011;53960;51.826;5.850;2022-12-18T05:09:59;17.73;;;8.33;;
67053;SDS011;53960;51.826;5.850;2022-12-18T05:12:25;19.60;;;8.37;;
67053;SDS011;53960;51.826;5.850;2022-12-18T05:14:50;19.58;;;8.02;;
67053;SDS011;53960;51.826;5.850;2022-12-18T05:17:16;18.37;;;8.23;;
67053;SDS011;53960;51.826;5.850;2022-12-18T05:19:41;17.23;;;7.93;;
67053;SDS011;53960;51.826;5.850;2022-12-18T05:22:06;17.17;;;7.90;;
67053;SDS011;53960;51.826;5.850;2022-12-18T05:24:32;19.23;;;8.07;;
67053;SDS011;53960;51.826;5.850;2022-12-18T05:26:57;19.57;;;8.47;;
67053;SDS011;53960;51.826;5.850;2022-12-18T05:29:23;20.13;;;8.80;;
67053;SDS011;53960;51.826;5.850;2022-12-18T05:31:48;20.07;;;8.40;;
67053;SDS011;53960;51.826;5.850;2022-12-18T05:34:13;21.23;;;9.83;;
67053;SDS011;53960;51.826;5.850;2022-12-18T05:36:39;20.47;;;8.87;;
67053;SDS011;53960;51.826;5.850;2022-12-18T05:39:04;20.27;;;9.18;;
67053;SDS011;53960;51.826;5.850;2022-12-18T05:41:30;19.20;;;8.50;;
67053;SDS011;53960;51.826;5.850;2022-12-18T05:43:55;20.17;;;8.40;;
67053;SDS011;53960;51.826;5.850;2022-12-18T05:46:20;22.20;;;9.17;;
67053;SDS011;53960;51.826;5.850;2022-12-18T05:48:45;20.63;;;8.70;;
67053;SDS011;53960;51.826;5.850;2022-12-18T05:51:15;20.50;;;9.00;;
67053;SDS011;53960;51.826;5.850;2022-12-18T05:53:42;20.17;;;8.23;;
67053;SDS011;53960;51.826;5.850;2022-12-18T05:56:10;18.65;;;8.07;;
67053;SDS011;53960;51.826;5.850;2022-12-18T05:58:36;19.75;;;8.45;;
67053;SDS011;53960;51.826;5.850;2022-12-18T06:01:06;20.47;;;9.27;;
67053;SDS011;53960;51.826;5.850;2022-12-18T06:03:36;21.85;;;9.27;;
67053;SDS011;53960;51.826;5.850;2022-12-18T06:06:02;18.53;;;7.57;;
67053;SDS011;53960;51.826;5.850;2022-12-18T06:08:27;20.70;;;8.65;;
67053;SDS011;53960;51.826;5.850;2022-12-18T06:10:53;17.40;;;7.87;;
67053;SDS011;53960;51.826;5.850;2022-12-18T06:13:19;16.43;;;7.83;;
67053;SDS011;53960;51.826;5.850;2022-12-18T06:15:45;19.40;;;8.63;;
67053;SDS011;53960;51.826;5.850;2022-12-18T06:18:10;15.50;;;8.07;;
67053;SDS011;53960;51.826;5.850;2022-12-18T06:20:35;17.17;;;7.47;;
67053;SDS011;53960;51.826;5.850;2022-12-18T06:23:01;19.33;;;7.95;;
67053;SDS011;53960;51.826;5.850;2022-12-18T06:25:27;19.13;;;8.10;;
67053;SDS011;53960;51.826;5.850;2022-12-18T06:27:52;19.15;;;7.88;;
67053;SDS011;53960;51.826;5.850;2022-12-18T06:30:19;17.47;;;7.90;;
67053;SDS011;53960;51.826;5.850;2022-12-18T06:32:44;16.25;;;7.68;;
67053;SDS011;53960;51.826;5.850;2022-12-18T06:35:10;18.10;;;8.43;;
67053;SDS011;53960;51.826;5.850;2022-12-18T06:37:35;17.60;;;8.03;;
67053;SDS011;53960;51.826;5.850;2022-12-18T06:40:01;17.13;;;7.57;;
67053;SDS011;53960;51.826;5.850;2022-12-18T06:42:26;16.47;;;8.40;;
67053;SDS011;53960;51.826;5.850;2022-12-18T06:44:51;19.13;;;8.40;;
67053;SDS011;53960;51.826;5.850;2022-12-18T06:47:17;17.17;;;7.60;;
67053;SDS011;53960;51.826;5.850;2022-12-18T06:49:43;16.73;;;8.13;;
67053;SDS011;53960;51.826;5.850;2022-12-18T06:52:08;19.23;;;8.30;;
67053;SDS011;53960;51.826;5.850;2022-12-18T06:54:34;16.77;;;7.90;;
67053;SDS011;53960;51.826;5.850;2022-12-18T06:56:59;17.27;;;7.60;;
67053;SDS011;53960;51.826;5.850;2022-12-18T06:59:24;17.40;;;8.27;;
67053;SDS011;53960;51.826;5.850;2022-12-18T07:01:50;16.73;;;8.03;;
67053;SDS011;53960;51.826;5.850;2022-12-18T07:04:15;18.38;;;7.75;;
67053;SDS011;53960;51.826;5.850;2022-12-18T07:06:40;16.70;;;7.43;;
67053;SDS011;53960;51.826;5.850;2022-12-18T07:09:06;18.80;;;8.20;;
67053;SDS011;53960;51.826;5.850;2022-12-18T07:11:34;17.47;;;8.63;;
67053;SDS011;53960;51.826;5.850;2022-12-18T07:13:59;17.02;;;7.80;;
67053;SDS011;53960;51.826;5.850;2022-12-18T07:16:25;17.93;;;7.77;;
67053;SDS011;53960;51.826;5.850;2022-12-18T07:18:51;18.40;;;7.57;;
67053;SDS011;53960;51.826;5.850;2022-12-18T07:21:18;20.00;;;8.30;;
67053;SDS011;53960;51.826;5.850;2022-12-18T07:23:44;19.30;;;8.32;;
67053;SDS011;53960;51.826;5.850;2022-12-18T07:26:13;21.02;;;7.97;;
67053;SDS011;53960;51.826;5.850;2022-12-18T07:28:41;20.23;;;7.90;;
67053;SDS011;53960;51.826;5.850;2022-12-18T07:31:08;17.73;;;8.10;;
67053;SDS011;53960;51.826;5.850;2022-12-18T07:33:35;17.52;;;8.20;;
67053;SDS011;53960;51.826;5.850;2022-12-18T07:36:01;18.77;;;7.93;;
67053;SDS011;53960;51.826;5.850;2022-12-18T07:38:28;18.80;;;8.00;;
67053;SDS011;53960;51.826;5.850;2022-12-18T07:40:53;16.23;;;7.40;;
67053;SDS011;53960;51.826;5.850;2022-12-18T07:43:18;17.50;;;7.63;;
67053;SDS011;53960;51.826;5.850;2022-12-18T07:45:44;19.20;;;8.05;;
67053;SDS011;53960;51.826;5.850;2022-12-18T07:48:09;18.00;;;7.97;;
67053;SDS011;53960;51.826;5.850;2022-12-18T07:50:35;17.03;;;8.10;;
67053;SDS011;53960;51.826;5.850;2022-12-18T07:53:00;17.63;;;7.83;;
67053;SDS011;53960;51.826;5.850;2022-12-18T07:55:28;18.85;;;7.80;;
67053;SDS011;53960;51.826;5.850;2022-12-18T07:57:54;16.25;;;7.97;;
67053;SDS011;53960;51.826;5.850;2022-12-18T08:00:20;18.27;;;8.77;;
67053;SDS011;53960;51.826;5.850;2022-12-18T08:02:45;17.83;;;8.00;;
67053;SDS011;53960;51.826;5.850;2022-12-18T08:05:10;16.33;;;7.63;;
67053;SDS011;53960;51.826;5.850;2022-12-18T08:07:36;19.27;;;8.23;;
67053;SDS011;53960;51.826;5.850;2022-12-18T08:10:01;18.80;;;8.63;;
67053;SDS011;53960;51.826;5.850;2022-12-18T08:12:27;17.90;;;8.27;;
67053;SDS011;53960;51.826;5.850;2022-12-18T08:14:52;16.30;;;7.63;;
67053;SDS011;53960;51.826;5.850;2022-12-18T08:17:18;19.03;;;7.90;;
67053;SDS011;53960;51.826;5.850;2022-12-18T08:19:44;18.85;;;7.90;;
67053;SDS011;53960;51.826;5.850;2022-12-18T08:22:10;20.40;;;8.73;;
67053;SDS011;53960;51.826;5.850;2022-12-18T08:24:35;18.27;;;8.67;;
67053;SDS011;53960;51.826;5.850;2022-12-18T08:27:00;18.83;;;8.00;;
67053;SDS011;53960;51.826;5.850;2022-12-18T08:29:25;17.53;;;7.53;;
67053;SDS011;53960;51.826;5.850;2022-12-18T08:31:51;17.20;;;7.60;;
67053;SDS011;53960;51.826;5.850;2022-12-18T08:34:16;18.13;;;7.43;;
67053;SDS011;53960;51.826;5.850;2022-12-18T08:36:41;16.80;;;7.37;;
67053;SDS011;53960;51.826;5.850;2022-12-18T08:39:07;16.33;;;7.45;;
67053;SDS011;53960;51.826;5.850;2022-12-18T08:41:32;17.10;;;7.30;;
67053;SDS011;53960;51.826;5.850;2022-12-18T08:43:58;17.33;;;8.07;;
67053;SDS011;53960;51.826;5.850;2022-12-18T08:46:42;14.80;;;7.10;;
67053;SDS011;53960;51.826;5.850;2022-12-18T08:49:08;17.98;;;7.82;;
67053;SDS011;53960;51.826;5.850;2022-12-18T08:51:35;17.23;;;7.25;;
67053;SDS011;53960;51.826;5.850;2022-12-18T08:54:01;18.53;;;7.33;;
67053;SDS011;53960;51.826;5.850;2022-12-18T08:56:27;17.33;;;7.53;;
67053;SDS011;53960;51.826;5.850;2022-12-18T08:58:52;16.83;;;8.10;;
67053;SDS011;53960;51.826;5.850;2022-12-18T09:01:18;16.60;;;7.43;;
67053;SDS011;53960;51.826;5.850;2022-12-18T09:03:48;15.50;;;7.05;;
67053;SDS011;53960;51.826;5.850;2022-12-18T09:06:14;15.93;;;7.53;;
67053;SDS011;53960;51.826;5.850;2022-12-18T09:08:41;14.48;;;6.70;;
67053;SDS011;53960;51.826;5.850;2022-12-18T09:11:14;18.23;;;6.97;;
67053;SDS011;53960;51.826;5.850;2022-12-18T09:13:48;16.92;;;6.80;;
67053;SDS011;53960;51.826;5.850;2022-12-18T09:16:13;16.83;;;7.10;;
67053;SDS011;53960;51.826;5.850;2022-12-18T09:18:39;17.43;;;7.30;;
67053;SDS011;53960;51.826;5.850;2022-12-18T09:21:08;17.90;;;6.93;;
67053;SDS011;53960;51.826;5.850;2022-12-18T09:23:43;17.63;;;7.57;;
67053;SDS011;53960;51.826;5.850;2022-12-18T09:26:09;16.97;;;7.17;;
67053;SDS011;53960;51.826;5.850;2022-12-18T09:28:34;16.10;;;7.20;;
67053;SDS011;53960;51.826;5.850;2022-12-18T09:31:03;17.77;;;7.97;;
67053;SDS011;53960;51.826;5.850;2022-12-18T09:33:30;16.90;;;7.28;;
67053;SDS011;53960;51.826;5.850;2022-12-18T09:35:55;17.57;;;7.80;;
67053;SDS011;53960;51.826;5.850;2022-12-18T09:38:20;19.90;;;7.60;;
67053;SDS011;53960;51.826;5.850;2022-12-18T09:40:49;20.20;;;7.93;;
67053;SDS011;53960;51.826;5.850;2022-12-18T09:43:18;17.52;;;7.10;;
67053;SDS011;53960;51.826;5.850;2022-12-18T09:45:48;17.33;;;7.63;;
67053;SDS011;53960;51.826;5.850;2022-12-18T09:51:22;17.60;;;7.13;;
67053;SDS011;53960;51.826;5.850;2022-12-18T09:53:57;16.57;;;6.97;;
67053;SDS011;53960;51.826;5.850;2022-12-18T09:56:27;15.43;;;7.07;;
67053;SDS011;53960;51.826;5.850;2022-12-18T09:58:59;18.02;;;7.38;;
67053;SDS011;53960;51.826;5.850;2022-12-18T10:01:27;16.98;;;7.22;;
67053;SDS011;53960;51.826;5.850;2022-12-18T10:03:53;17.38;;;7.05;;
67053;SDS011;53960;51.826;5.850;2022-12-18T10:09:07;16.40;;;6.88;;
67053;SDS011;53960;51.826;5.850;2022-12-18T10:20:16;16.23;;;7.17;;
67053;SDS011;53960;51.826;5.850;2022-12-18T10:25:49;17.27;;;7.28;;
67053;SDS011;53960;51.826;5.850;2022-12-18T10:28:29;15.93;;;7.35;;
67053;SDS011;53960;51.826;5.850;2022-12-18T10:30:56;17.05;;;7.13;;
67053;SDS011;53960;51.826;5.850;2022-12-18T10:33:22;17.17;;;7.80;;
67053;SDS011;53960;51.826;5.850;2022-12-18T10:35:52;17.15;;;7.07;;
67053;SDS011;53960;51.826;5.850;2022-12-18T10:41:06;17.20;;;7.60;;
67053;SDS011;53960;51.826;5.850;2022-12-18T10:45:59;17.77;;;7.28;;
67053;SDS011;53960;51.826;5.850;2022-12-18T10:48:52;17.45;;;7.57;;
67053;SDS011;53960;51.826;5.850;2022-12-18T10:53:57;16.70;;;8.00;;
67053;SDS011;53960;51.826;5.850;2022-12-18T10:56:26;16.07;;;7.33;;
67053;SDS011;53960;51.826;5.850;2022-12-18T10:59:03;17.25;;;7.47;;
67053;SDS011;53960;51.826;5.850;2022-12-18T11:01:44;18.20;;;7.85;;
67053;SDS011;53960;51.826;5.850;2022-12-18T11:04:21;17.02;;;7.93;;
67053;SDS011;53960;51.826;5.850;2022-12-18T11:09:21;18.13;;;7.77;;
67053;SDS011;53960;51.826;5.850;2022-12-18T11:11:52;15.85;;;7.07;;
67053;SDS011;53960;51.826;5.850;2022-12-18T11:14:24;18.67;;;7.53;;
67053;SDS011;53960;51.826;5.850;2022-12-18T11:16:52;16.80;;;7.18;;
67053;SDS011;53960;51.826;5.850;2022-12-18T11:21:47;19.50;;;7.20;;
67053;SDS011;53960;51.826;5.850;2022-12-18T11:24:49;20.52;;;7.95;;
67053;SDS011;53960;51.826;5.850;2022-12-18T11:27:04;23.13;;;8.23;;
67053;SDS011;53960;51.826;5.850;2022-12-18T11:29:32;16.97;;;7.27;;
67053;SDS011;53960;51.826;5.850;2022-12-18T11:34:39;17.33;;;7.68;;
67053;SDS011;53960;51.826;5.850;2022-12-18T11:37:09;19.33;;;7.78;;
67053;SDS011;53960;51.826;5.850;2022-12-18T11:39:38;17.45;;;7.25;;
67053;SDS011;53960;51.826;5.850;2022-12-18T11:42:25;17.10;;;7.30;;
67053;SDS011;53960;51.826;5.850;2022-12-18T11:52:58;18.05;;;7.93;;
67053;SDS011;53960;51.826;5.850;2022-12-18T12:00:29;21.63;;;8.32;;
67053;SDS011;53960;51.826;5.850;2022-12-18T12:11:01;16.52;;;8.00;;
67053;SDS011;53960;51.826;5.850;2022-12-18T12:14:17;19.10;;;7.90;;
67053;SDS011;53960;51.826;5.850;2022-12-18T12:22:20;17.48;;;8.20;;
67053;SDS011;53960;51.826;5.850;2022-12-18T12:25:01;18.70;;;7.90;;
67053;SDS011;53960;51.826;5.850;2022-12-18T12:27:40;16.10;;;7.70;;
67053;SDS011;53960;51.826;5.850;2022-12-18T12:38:28;17.67;;;7.70;;
67053;SDS011;53960;51.826;5.850;2022-12-18T12:40:59;17.80;;;8.27;;
67053;SDS011;53960;51.826;5.850;2022-12-18T12:43:31;20.55;;;8.02;;
67053;SDS011;53960;51.826;5.850;2022-12-18T12:46:04;20.83;;;8.20;;
67053;SDS011;53960;51.826;5.850;2022-12-18T12:48:43;19.70;;;8.52;;
67053;SDS011;53960;51.826;5.850;2022-12-18T12:51:13;19.77;;;9.18;;
67053;SDS011;53960;51.826;5.850;2022-12-18T12:53:40;18.73;;;8.23;;
67053;SDS011;53960;51.826;5.850;2022-12-18T12:56:06;18.13;;;8.40;;
67053;SDS011;53960;51.826;5.850;2022-12-18T12:58:40;18.83;;;8.07;;
67053;SDS011;53960;51.826;5.850;2022-12-18T13:04:18;17.93;;;7.83;;
67053;SDS011;53960;51.826;5.850;2022-12-18T13:07:10;18.30;;;8.40;;
67053;SDS011;53960;51.826;5.850;2022-12-18T13:20:51;16.30;;;7.78;;
67053;SDS011;53960;51.826;5.850;2022-12-18T13:23:42;18.80;;;7.97;;
67053;SDS011;53960;51.826;5.850;2022-12-18T13:31:12;18.55;;;8.55;;
67053;SDS011;53960;51.826;5.850;2022-12-18T13:33:43;18.52;;;9.07;;
67053;SDS011;53960;51.826;5.850;2022-12-18T13:38:40;22.27;;;8.45;;
67053;SDS011;53960;51.826;5.850;2022-12-18T13:41:21;19.63;;;9.02;;
67053;SDS011;53960;51.826;5.850;2022-12-18T13:43:48;20.92;;;8.82;;
67053;SDS011;53960;51.826;5.850;2022-12-18T13:46:19;19.05;;;8.25;;
67053;SDS011;53960;51.826;5.850;2022-12-18T13:48:53;22.63;;;9.77;;
67053;SDS011;53960;51.826;5.850;2022-12-18T13:51:22;18.88;;;8.77;;
67053;SDS011;53960;51.826;5.850;2022-12-18T13:53:50;20.48;;;8.85;;
67053;SDS011;53960;51.826;5.850;2022-12-18T13:56:21;19.90;;;9.02;;
67053;SDS011;53960;51.826;5.850;2022-12-18T13:59:03;18.45;;;8.57;;
67053;SDS011;53960;51.826;5.850;2022-12-18T14:01:46;19.33;;;8.73;;
67053;SDS011;53960;51.826;5.850;2022-12-18T14:04:29;22.05;;;9.27;;
67053;SDS011;53960;51.826;5.850;2022-12-18T14:06:57;18.90;;;9.20;;
67053;SDS011;53960;51.826;5.850;2022-12-18T14:09:31;19.58;;;9.38;;
67053;SDS011;53960;51.826;5.850;2022-12-18T14:12:04;20.98;;;9.45;;
67053;SDS011;53960;51.826;5.850;2022-12-18T14:14:49;19.40;;;8.53;;
67053;SDS011;53960;51.826;5.850;2022-12-18T14:17:16;19.60;;;9.07;;
67053;SDS011;53960;51.826;5.850;2022-12-18T14:19:49;19.20;;;9.10;;
67053;SDS011;53960;51.826;5.850;2022-12-18T14:22:20;20.45;;;9.40;;
67053;SDS011;53960;51.826;5.850;2022-12-18T14:25:04;20.08;;;9.30;;
67053;SDS011;53960;51.826;5.850;2022-12-18T14:27:44;20.60;;;8.93;;
67053;SDS011;53960;51.826;5.850;2022-12-18T14:33:02;22.30;;;10.00;;
67053;SDS011;53960;51.826;5.850;2022-12-18T14:35:58;21.10;;;9.20;;
67053;SDS011;53960;51.826;5.850;2022-12-18T14:38:32;20.88;;;8.93;;
67053;SDS011;53960;51.826;5.850;2022-12-18T14:41:05;22.07;;;9.27;;
67053;SDS011;53960;51.826;5.850;2022-12-18T14:43:36;19.63;;;9.23;;
67053;SDS011;53960;51.826;5.850;2022-12-18T14:46:03;22.00;;;9.90;;
67053;SDS011;53960;51.826;5.850;2022-12-18T14:48:33;19.85;;;9.52;;
67053;SDS011;53960;51.826;5.850;2022-12-18T14:51:03;21.27;;;9.70;;
67053;SDS011;53960;51.826;5.850;2022-12-18T14:53:37;28.73;;;9.27;;
67053;SDS011;53960;51.826;5.850;2022-12-18T14:56:15;22.65;;;9.40;;
67053;SDS011;53960;51.826;5.850;2022-12-18T14:58:48;21.95;;;9.82;;
67053;SDS011;53960;51.826;5.850;2022-12-18T15:01:19;22.60;;;9.90;;
67053;SDS011;53960;51.826;5.850;2022-12-18T15:03:46;20.55;;;9.25;;
67053;SDS011;53960;51.826;5.850;2022-12-18T15:06:15;23.90;;;10.93;;
67053;SDS011;53960;51.826;5.850;2022-12-18T15:08:42;22.75;;;10.68;;
67053;SDS011;53960;51.826;5.850;2022-12-18T15:13:53;23.33;;;9.90;;
67053;SDS011;53960;51.826;5.850;2022-12-18T15:16:18;23.05;;;9.68;;
67053;SDS011;53960;51.826;5.850;2022-12-18T15:18:44;23.37;;;9.23;;
67053;SDS011;53960;51.826;5.850;2022-12-18T15:21:19;23.30;;;10.13;;
67053;SDS011;53960;51.826;5.850;2022-12-18T15:23:51;20.53;;;9.80;;
67053;SDS011;53960;51.826;5.850;2022-12-18T15:26:18;20.42;;;9.55;;
67053;SDS011;53960;51.826;5.850;2022-12-18T15:28:52;22.63;;;10.23;;
67053;SDS011;53960;51.826;5.850;2022-12-18T15:36:18;22.53;;;10.47;;
67053;SDS011;53960;51.826;5.850;2022-12-18T15:38:46;24.53;;;10.50;;
67053;SDS011;53960;51.826;5.850;2022-12-18T15:41:18;24.67;;;10.57;;
67053;SDS011;53960;51.826;5.850;2022-12-18T15:43:45;21.15;;;9.70;;
67053;SDS011;53960;51.826;5.850;2022-12-18T15:46:12;25.80;;;10.77;;
67053;SDS011;53960;51.826;5.850;2022-12-18T15:48:43;25.13;;;10.60;;
67053;SDS011;53960;51.826;5.850;2022-12-18T15:51:11;23.63;;;10.13;;
67053;SDS011;53960;51.826;5.850;2022-12-18T15:53:40;23.60;;;10.38;;
67053;SDS011;53960;51.826;5.850;2022-12-18T15:56:12;23.88;;;11.05;;
67053;SDS011;53960;51.826;5.850;2022-12-18T15:58:58;23.02;;;10.90;;
67053;SDS011;53960;51.826;5.850;2022-12-18T16:01:25;23.53;;;10.60;;
67053;SDS011;53960;51.826;5.850;2022-12-18T16:03:52;22.58;;;11.07;;
67053;SDS011;53960;51.826;5.850;2022-12-18T16:06:18;23.23;;;11.10;;
67053;SDS011;53960;51.826;5.850;2022-12-18T16:08:44;24.43;;;11.13;;
67053;SDS011;53960;51.826;5.850;2022-12-18T16:11:17;22.73;;;11.10;;
67053;SDS011;53960;51.826;5.850;2022-12-18T16:14:07;25.77;;;11.80;;
67053;SDS011;53960;51.826;5.850;2022-12-18T16:16:37;25.60;;;10.90;;
67053;SDS011;53960;51.826;5.850;2022-12-18T16:19:02;23.87;;;11.07;;
67053;SDS011;53960;51.826;5.850;2022-12-18T16:21:27;27.47;;;11.67;;
67053;SDS011;53960;51.826;5.850;2022-12-18T16:23:53;22.07;;;10.47;;
67053;SDS011;53960;51.826;5.850;2022-12-18T16:26:18;23.33;;;11.77;;
67053;SDS011;53960;51.826;5.850;2022-12-18T16:28:43;24.23;;;11.23;;
67053;SDS011;53960;51.826;5.850;2022-12-18T16:31:08;24.43;;;10.70;;
67053;SDS011;53960;51.826;5.850;2022-12-18T16:33:34;22.67;;;10.97;;
67053;SDS011;53960;51.826;5.850;2022-12-18T16:35:59;22.50;;;10.57;;
67053;SDS011;53960;51.826;5.850;2022-12-18T16:38:24;25.13;;;11.23;;
67053;SDS011;53960;51.826;5.850;2022-12-18T16:40:50;23.10;;;10.83;;
67053;SDS011;53960;51.826;5.850;2022-12-18T16:43:33;26.00;;;11.37;;